Flight Track Log - Related Links

Times and Time Zones

All times are in EDT time to prevent confusion due to time zone crossing. See the DAL268 flight status page for this flight to view local times or setup timezone preferences in your user account.

Time Position Orientation Groundspeed Altitude Reporting Facility
EDT Latitude Longitude Course Direction KTS MPH feet Rate Location/Type
Thu 07:16:34 PM 33.6328 -84.4831 64° Northeast 446 513 2,300  Level Atlanta Center
Thu 07:17:34 PM 33.6011 -84.5525 241° Southwest 347 399 3,900 2,100 Climbing Atlanta Center
Thu 07:18:00 PM 33.7145 -84.0199 101° East  Level FlightAware Approximate
Thu 07:18:34 PM 33.5406 -84.5897 207° Southwest 266 306 6,500  Level Atlanta Center
Thu 07:19:00 PM 33.6922 -83.8859 101° East  Level FlightAware Approximate
Thu 07:19:34 PM 33.4569 -84.5692 168° South 299 344 8,500  Level Atlanta Center
Thu 07:20:00 PM 33.6698 -83.7519 101° East  Level FlightAware Approximate
Thu 07:20:34 PM 33.4469 -84.4694 97° East 272 313 10,500  Level Atlanta Center
Thu 07:21:00 PM 33.6558 -83.6192 64° Northeast  Level FlightAware Approximate
Thu 07:21:34 PM 33.4536 -84.3525 86° East 287 330 11,500  Level Atlanta Center
Thu 07:22:34 PM 33.4747 -84.2231 79° East 385 443 12,900 1,700 Climbing Atlanta Center
Thu 07:23:34 PM 33.5292 -84.0986 62° Northeast 398 458 14,900 1,933 Climbing Atlanta Center
Thu 07:25:34 PM 33.6228 -83.8267 67° East 435 501 18,700 1,767 Climbing Atlanta Center
Thu 07:26:34 PM 33.6539 -83.6794 76° East 447 514 20,200 1,500 Climbing Atlanta Center
Thu 07:27:34 PM 33.7014 -83.5344 68° East 462 532 21,700 1,450 Climbing Atlanta Center
Thu 07:28:34 PM 33.7611 -83.3917 63° Northeast 462 532 23,100 1,550 Climbing Atlanta Center
Thu 07:29:34 PM 33.8189 -83.2486 64° Northeast 467 537 24,800 1,500 Climbing Atlanta Center
Thu 07:30:34 PM 33.8764 -83.1081 64° Northeast 467 537 26,100 1,400 Climbing Atlanta Center
Thu 07:31:34 PM 33.9314 -82.9622 66° East 467 537 27,600 1,350 Climbing Atlanta Center
Thu 07:32:34 PM 33.9928 -82.8236 62° Northeast 467 537 28,800 1,050 Climbing Atlanta Center
Thu 07:33:34 PM 34.0475 -82.6800 65° Northeast 467 537 29,700 600 Climbing Atlanta Center
Thu 07:34:34 PM 34.0942 -82.5539 66° East 460 529 30,000 150 Climbing Atlanta Center
Thu 07:35:34 PM 34.1547 -82.4019 64° Northeast 454 522 30,000  Level Atlanta Center
Thu 07:36:34 PM 34.2114 -82.2603 64° Northeast 454 522 30,000  Level Atlanta Center
Thu 07:37:34 PM 34.2675 -82.1208 64° Northeast 454 522 30,000  Level Atlanta Center
Thu 07:38:34 PM 34.3344 -81.9911 58° Northeast 449 517 30,000  Level Atlanta Center
Thu 07:39:34 PM 34.3989 -81.8586 59° Northeast 454 522 30,000 250 Level Atlanta Center
Thu 07:40:34 PM 34.4675 -81.7258 58° Northeast 454 522 30,500 500 Climbing Atlanta Center
Thu 07:41:34 PM 34.5317 -81.5931 60° Northeast 454 522 31,000 250 Climbing Atlanta Center
Thu 07:42:34 PM 34.5958 -81.4625 59° Northeast 454 522 31,000  Level Atlanta Center
Thu 07:43:34 PM 34.6617 -81.3292 59° Northeast 454 522 31,000  Level Atlanta Center
Thu 07:44:34 PM 34.7297 -81.1931 59° Northeast 454 522 31,000  Level Atlanta Center
Thu 07:45:34 PM 34.7933 -81.0617 59° Northeast 454 522 31,000  Level Atlanta Center
Thu 07:46:34 PM 34.8567 -80.9278 60° Northeast 454 522 31,000  Level Atlanta Center
Thu 07:47:34 PM 34.9242 -80.7936 58° Northeast 454 522 31,000  Level Atlanta Center
Thu 07:49:29 PM 35.0481 -80.5342 60° Northeast 456 525 31,000  Level Washington Center
Thu 07:50:30 PM 35.1119 -80.4008 60° Northeast 456 525 31,000  Level Washington Center
Thu 07:51:30 PM 35.1781 -80.2650 59° Northeast 456 525 31,000  Level Washington Center
Thu 07:52:30 PM 35.2417 -80.1314 60° Northeast 456 525 31,000  Level Washington Center
Thu 07:53:29 PM 35.3050 -80.0003 59° Northeast 451 519 31,000  Level Washington Center
Thu 07:54:29 PM 35.3681 -79.8661 60° Northeast 451 519 31,000  Level Washington Center
Thu 07:55:30 PM 35.4272 -79.7292 62° Northeast 451 519 31,000  Level Washington Center
Thu 07:56:31 PM 35.4697 -79.5833 70° East 451 519 31,000  Level Washington Center
Thu 07:57:32 PM 35.5122 -79.4325 71° East 451 519 31,000  Level Washington Center
Thu 07:58:29 PM 35.5544 -79.2836 71° East 458 527 31,000  Level Washington Center
Thu 07:59:30 PM 35.5964 -79.1375 71° East 458 527 31,000  Level Washington Center
Thu 08:00:31 PM 35.6386 -78.9861 71° East 458 527 31,000  Level Washington Center
Thu 08:01:32 PM 35.6800 -78.8394 71° East 458 527 31,000  Level Washington Center
Thu 08:02:30 PM 35.7194 -78.6903 72° East 458 527 31,000  Level Washington Center
Thu 08:03:30 PM 35.7564 -78.5561 71° East 458 527 31,000  Level Washington Center
Thu 08:04:31 PM 35.7956 -78.4064 72° East 458 527 31,000  Level Washington Center
Thu 08:05:31 PM 35.8344 -78.2567 72° East 458 527 31,000  Level Washington Center
Thu 08:06:29 PM 35.8753 -78.1042 72° East 458 527 31,000  Level Washington Center
Thu 08:07:29 PM 35.9136 -77.9567 72° East 453 521 31,000  Level Washington Center
Thu 08:08:30 PM 35.9519 -77.8064 72° East 453 521 31,000  Level Washington Center
Thu 08:09:30 PM 36.0025 -77.6639 66° East 453 521 31,000  Level Washington Center
Thu 08:10:31 PM 36.0775 -77.5425 53° Northeast 448 516 31,000  Level Washington Center
Thu 08:11:32 PM 36.1547 -77.4211 52° Northeast 443 510 31,000  Level Washington Center
Thu 08:12:30 PM 36.2150 -77.2783 62° Northeast 431 496 31,000  Level Washington Center
Thu 08:13:31 PM 36.2319 -77.1214 82° East 441 507 31,000  Level Washington Center
Thu 08:14:31 PM 36.2483 -76.9647 83° East 441 507 31,000  Level Washington Center
Thu 08:15:32 PM 36.2625 -76.8053 84° East 451 519 31,000  Level Washington Center
Thu 08:16:30 PM 36.2994 -76.6539 73° East 457 526 31,000  Level Washington Center
Thu 08:17:30 PM 36.3919 -76.5597 39° Northeast 411 473 31,000  Level Washington Center
Thu 08:18:29 PM 36.5011 -76.4911 27° Northeast 411 473 31,000  Level Washington Center
Thu 08:19:30 PM 36.6122 -76.4225 26° Northeast 427 491 31,000  Level Washington Center
Thu 08:20:31 PM 36.7211 -76.3486 29° Northeast 432 497 31,000  Level Washington Center
Thu 08:21:32 PM 36.8281 -76.2794 27° Northeast 437 503 31,000  Level Washington Center
Thu 08:22:29 PM 36.9283 -76.2156 27° Northeast 437 503 31,000  Level Washington Center
Thu 08:23:29 PM 37.0436 -76.1486 25° Northeast 437 503 31,000  Level Washington Center
Thu 08:24:30 PM 37.1503 -76.0767 28° Northeast 437 503 31,000  Level Washington Center
Thu 08:25:30 PM 37.2611 -76.0017 28° Northeast 437 503 31,000  Level Washington Center
Thu 08:26:31 PM 37.3717 -75.9317 27° Northeast 437 503 31,000  Level Washington Center
Thu 08:27:31 PM 37.4806 -75.8561 29° Northeast 437 503 31,000  Level Washington Center
Thu 08:28:31 PM 37.5892 -75.7831 28° Northeast 437 503 31,000  Level Washington Center
Thu 08:29:30 PM 37.6975 -75.7100 28° Northeast 437 503 31,000  Level Washington Center
Thu 08:30:31 PM 37.8061 -75.6444 25° Northeast 432 497 31,000  Level Washington Center
Thu 08:31:32 PM 37.9144 -75.5681 29° Northeast 432 497 31,000  Level Washington Center
Thu 08:32:29 PM 38.0250 -75.4942 28° Northeast 432 497 31,000  Level Washington Center
Thu 08:33:30 PM 38.1333 -75.4256 26° Northeast 432 497 31,000  Level Washington Center
Thu 08:34:31 PM 38.2439 -75.3539 27° Northeast 432 497 31,000  Level Washington Center
Thu 08:35:29 PM 38.3500 -75.2847 27° Northeast 427 491 31,000  Level Washington Center
Thu 08:36:30 PM 38.4603 -75.2100 28° Northeast 427 491 31,000 -49 Level Washington Center
Thu 08:37:31 PM 38.5725 -75.1456 24° Northeast 434 499 30,900  Descending Washington Center
Thu 08:38:32 PM 38.6808 -75.0783 26° Northeast 434 499 31,000 51 Climbing Washington Center
Thu 08:39:29 PM 38.7889 -75.0031 28° Northeast 428 493 31,000  Level Washington Center
Thu 08:40:30 PM 38.8947 -74.9328 27° Northeast 428 493 31,000  Level Washington Center
Thu 08:41:30 PM 39.0028 -74.8678 25° Northeast 428 493 31,000 -446 Level Washington Center
Thu 08:42:31 PM 39.1064 -74.7919 30° Northeast 423 487 30,100 -1,750 Descending Washington Center
Thu 08:43:30 PM 39.1994 -74.6917 40° Northeast 433 498 27,500 -2,500 Descending Washington Center
Thu 08:44:31 PM 39.2928 -74.5936 39° Northeast 442 509 25,100 -2,441 Descending New York Center
Thu 08:45:28 PM 39.3836 -74.4911 41° Northeast 436 502 22,700 -2,471 Descending New York Center
Thu 08:46:30 PM 39.4700 -74.3961 40° Northeast 415 478 20,200 -2,244 Descending New York Center
Thu 08:47:31 PM 39.5542 -74.3008 41° Northeast 401 461 18,100 -1,537 Descending New York Center
Thu 08:48:31 PM 39.6383 -74.2078 40° Northeast 391 450 17,100 -1,322 Descending New York Center
Thu 08:49:29 PM 39.7286 -74.1097 40° Northeast 391 450 15,500 -1,513 Descending New York Center
Thu 08:50:30 PM 39.8125 -74.0219 39° Northeast 391 450 14,100 -1,279 Descending New York Center
Thu 08:51:31 PM 39.8894 -73.9550 34° Northeast 377 434 12,900 -1,339 Descending New York Center
Thu 08:52:31 PM 39.9808 -73.8861 30° Northeast 378 435 11,400 -942 Descending New York Center
Thu 08:53:32 PM 40.0783 -73.8200 27° Northeast 366 421 11,000 -442 Descending New York Center
Thu 08:54:06 PM 40.1333 -73.8167 North 281 323 10,700 -1,340 Descending New York TRACON
Thu 08:55:06 PM 40.2000 -73.8500 339° North 283 326 8,900 -1,735 Descending New York TRACON
Thu 08:55:29 PM 40.2250 -73.8756 322° Northwest 274 315 8,300 -1,357 Descending New York Center
Thu 08:56:30 PM 40.2956 -73.8842 355° North 274 315 7,000 -1,385 Descending New York Center
Thu 08:57:00 PM 40.3167 -73.8333 61° Northeast 297 342 6,200 -1,375 Descending New York TRACON
Thu 08:58:06 PM 40.2833 -73.7167 110° East 290 334 4,800 -1,000 Descending New York TRACON
Thu 08:59:06 PM 40.3167 -73.6500 57° Northeast 279 321 4,100 -585 Descending New York TRACON
Thu 08:59:28 PM 40.3417 -73.6247 38° Northeast 238 274 4,000 -72 Descending New York Center
Thu 09:00:29 PM 40.4056 -73.5756 30° Northeast 252 290 4,000  Level New York Center
Thu 09:01:00 PM 40.4333 -73.5500 35° Northeast 266 306 4,000  Level New York TRACON
Thu 09:02:00 PM 40.5000 -73.5000 30° Northeast 266 306 4,000 -143 Level New York TRACON
Thu 09:03:06 PM 40.5667 -73.4500 30° Northeast 267 307 3,700 -476 Descending New York TRACON
Thu 09:04:06 PM 40.6500 -73.4667 351° North 258 297 3,000 -350 Descending New York TRACON
Thu 09:05:06 PM 40.7167 -73.4667 360° North 242 278 3,000  Level New York TRACON
Thu 09:06:06 PM 40.7667 -73.5167 323° Northwest 208 239 3,000 -450 Level New York TRACON
Thu 09:07:06 PM 40.7833 -73.5667 294° West 204 235 2,100 -500 Descending New York TRACON
Thu 09:08:06 PM 40.7833 -73.6333 270° West 193 222 2,000 -50 Descending New York TRACON
Thu 09:09:06 PM 40.7500 -73.6833 229° Southwest 167 192 2,000  Level New York TRACON

Login

Don't have an account? Register now (free) for customized features, flight alerts, and more!